JES3032 SAVC-SABE
Flight info
| Callsign | JES3032 |
|---|---|
| Flight time | N/A |
| Altitude | 37000 |
| Route | GATUD1C GATUD UP664 TRE UT693 BCA UW22 VALOS VALOS9Q |
| Aircraft | B738/M-SDE2E3FGHIRWXY/LB1 |
Departure
| Time | 2026-05-05 22:06 |
|---|---|
| Airport | General Enrique Mosconi International Airport (SAVC) |
Arrival
| Time | N/A |
|---|---|
| Airport | Aeroparque Jorge Newbery (SABE) |
| Time | Latitude | Longitude | Altitude | Speed | Heading |
|---|---|---|---|---|---|
| 2026-05-05 21:45 | -45.78959 | -67.46873 | 176 ft | 0 kts | 209° |
| 2026-05-05 21:51 | -45.78952 | -67.46868 | 176 ft | 2 kts | 205° |
| 2026-05-05 21:51 | -45.78938 | -67.46859 | 175 ft | 2 kts | 206° |
| 2026-05-05 21:51 | -45.78925 | -67.46850 | 175 ft | 2 kts | 206° |
| 2026-05-05 21:51 | -45.78914 | -67.46842 | 175 ft | 1 kts | 205° |
| 2026-05-05 21:52 | -45.78910 | -67.46828 | 174 ft | 0 kts | 268° |
| 2026-05-05 21:55 | -45.78911 | -67.46858 | 175 ft | 6 kts | 266° |
| 2026-05-05 21:55 | -45.78912 | -67.46947 | 177 ft | 9 kts | 269° |
| 2026-05-05 21:55 | -45.78915 | -67.47031 | 178 ft | 7 kts | 264° |
| 2026-05-05 21:55 | -45.78919 | -67.47110 | 180 ft | 8 kts | 264° |
| 2026-05-05 21:56 | -45.78917 | -67.47169 | 183 ft | 0 kts | 288° |
| 2026-05-05 21:59 | -45.78877 | -67.47219 | 182 ft | 35 kts | 335° |
| 2026-05-05 22:00 | -45.78849 | -67.47380 | 185 ft | 7 kts | 249° |
| 2026-05-05 22:00 | -45.78847 | -67.47466 | 188 ft | 10 kts | 269° |
| 2026-05-05 22:00 | -45.78861 | -67.47606 | 192 ft | 18 kts | 260° |
| 2026-05-05 22:00 | -45.78885 | -67.47825 | 197 ft | 26 kts | 261° |
| 2026-05-05 22:01 | -45.78919 | -67.48102 | 203 ft | 27 kts | 256° |
| 2026-05-05 22:01 | -45.78852 | -67.48226 | 204 ft | 5 kts | 346° |
| 2026-05-05 22:01 | -45.78850 | -67.48228 | 204 ft | 0 kts | 345° |
| 2026-05-05 22:05 | -45.78844 | -67.48229 | 204 ft | 7 kts | 345° |
| 2026-05-05 22:05 | -45.78735 | -67.48143 | 200 ft | 24 kts | 75° |
| 2026-05-05 22:05 | -45.78625 | -67.47478 | 184 ft | 112 kts | 79° |
| 2026-05-05 22:06 | -45.78468 | -67.46055 | 431 ft | 166 kts | 79° |
| 2026-05-05 22:06 | -45.78271 | -67.44351 | 1280 ft | 182 kts | 78° |
| 2026-05-05 22:06 | -45.78037 | -67.42552 | 2358 ft | 184 kts | 76° |
| 2026-05-05 22:06 | -45.77787 | -67.40728 | 3006 ft | 197 kts | 76° |
| 2026-05-05 22:07 | -45.77510 | -67.38712 | 3581 ft | 215 kts | 76° |
| 2026-05-05 22:07 | -45.77169 | -67.36539 | 4162 ft | 232 kts | 70° |
| 2026-05-05 22:07 | -45.76532 | -67.34311 | 4739 ft | 249 kts | 59° |
| 2026-05-05 22:07 | -45.75533 | -67.32206 | 5381 ft | 261 kts | 49° |
| 2026-05-05 22:08 | -45.74414 | -67.30169 | 6221 ft | 267 kts | 52° |
| 2026-05-05 22:08 | -45.73396 | -67.27929 | 7059 ft | 272 kts | 55° |
| 2026-05-05 22:08 | -45.72394 | -67.25591 | 7854 ft | 278 kts | 56° |
| 2026-05-05 22:08 | -45.71382 | -67.23184 | 8621 ft | 283 kts | 56° |
| 2026-05-05 22:09 | -45.70353 | -67.20718 | 9363 ft | 289 kts | 56° |
| 2026-05-05 22:09 | -45.69320 | -67.18236 | 10069 ft | 294 kts | 57° |
| 2026-05-05 22:09 | -45.68237 | -67.15635 | 10565 ft | 307 kts | 57° |
| 2026-05-05 22:09 | -45.67084 | -67.12867 | 10904 ft | 325 kts | 57° |
| 2026-05-05 22:10 | -45.65886 | -67.09990 | 11221 ft | 343 kts | 57° |
| 2026-05-05 22:10 | -45.64597 | -67.06896 | 11532 ft | 361 kts | 57° |
| 2026-05-05 22:10 | -45.63261 | -67.03691 | 11829 ft | 377 kts | 57° |
| 2026-05-05 22:10 | -45.61868 | -67.00353 | 12274 ft | 388 kts | 57° |
| 2026-05-05 22:11 | -45.60438 | -66.96970 | 12928 ft | 392 kts | 54° |
| 2026-05-05 22:11 | -45.58714 | -66.93899 | 13580 ft | 394 kts | 43° |
| 2026-05-05 22:11 | -45.56604 | -66.91369 | 14232 ft | 395 kts | 31° |
| 2026-05-05 22:11 | -45.54289 | -66.89295 | 14885 ft | 398 kts | 28° |
| 2026-05-05 22:12 | -45.51881 | -66.87274 | 15519 ft | 402 kts | 27° |
| 2026-05-05 22:12 | -45.49440 | -66.85240 | 16150 ft | 407 kts | 27° |
| 2026-05-05 22:12 | -45.46968 | -66.83168 | 16785 ft | 412 kts | 28° |
| 2026-05-05 22:12 | -45.44511 | -66.81095 | 17406 ft | 416 kts | 28° |
| 2026-05-05 22:13 | -45.41992 | -66.78961 | 18022 ft | 421 kts | 28° |
| 2026-05-05 22:13 | -45.39438 | -66.76794 | 18621 ft | 425 kts | 28° |
| 2026-05-05 22:13 | -45.36888 | -66.74630 | 19202 ft | 429 kts | 28° |
| 2026-05-05 22:13 | -45.34255 | -66.72395 | 19799 ft | 433 kts | 28° |
| 2026-05-05 22:14 | -45.31618 | -66.70160 | 20353 ft | 437 kts | 28° |
| 2026-05-05 22:14 | -45.28921 | -66.67876 | 20998 ft | 438 kts | 28° |
| 2026-05-05 22:14 | -45.26259 | -66.65623 | 21607 ft | 440 kts | 28° |
| 2026-05-05 22:14 | -45.23540 | -66.63326 | 22113 ft | 444 kts | 28° |
| 2026-05-05 22:15 | -45.20794 | -66.61009 | 22600 ft | 448 kts | 28° |
| 2026-05-05 22:15 | -45.18067 | -66.58711 | 23069 ft | 452 kts | 28° |
| 2026-05-05 22:15 | -45.15267 | -66.56355 | 23536 ft | 456 kts | 28° |
| 2026-05-05 22:15 | -45.12457 | -66.53992 | 23991 ft | 459 kts | 29° |
| 2026-05-05 22:16 | -45.09657 | -66.51642 | 24424 ft | 463 kts | 29° |
| 2026-05-05 22:16 | -45.06765 | -66.49255 | 24830 ft | 467 kts | 28° |
| 2026-05-05 22:16 | -45.03887 | -66.46963 | 25209 ft | 471 kts | 28° |
| 2026-05-05 22:16 | -45.00940 | -66.44643 | 25578 ft | 475 kts | 28° |
| 2026-05-05 22:17 | -44.98046 | -66.42371 | 25928 ft | 480 kts | 28° |
| 2026-05-05 22:17 | -44.95032 | -66.40003 | 26284 ft | 484 kts | 29° |
| 2026-05-05 22:17 | -44.92011 | -66.37627 | 26640 ft | 487 kts | 29° |
| 2026-05-05 22:17 | -44.88979 | -66.35242 | 27056 ft | 489 kts | 29° |
| 2026-05-05 22:18 | -44.85963 | -66.32876 | 27555 ft | 487 kts | 28° |
| 2026-05-05 22:18 | -44.83023 | -66.30563 | 28017 ft | 486 kts | 28° |
| 2026-05-05 22:18 | -44.80049 | -66.28228 | 28436 ft | 486 kts | 29° |
| 2026-05-05 22:18 | -44.77114 | -66.25929 | 28827 ft | 486 kts | 29° |
| 2026-05-05 22:19 | -44.74136 | -66.23599 | 29214 ft | 486 kts | 29° |
| 2026-05-05 22:19 | -44.71197 | -66.21304 | 29596 ft | 486 kts | 29° |
| 2026-05-05 22:19 | -44.68261 | -66.19013 | 29960 ft | 486 kts | 29° |
| 2026-05-05 22:19 | -44.65279 | -66.16692 | 30315 ft | 485 kts | 30° |
| 2026-05-05 22:20 | -44.62360 | -66.14422 | 30652 ft | 485 kts | 30° |
| 2026-05-05 22:20 | -44.59417 | -66.12135 | 30981 ft | 485 kts | 30° |
| 2026-05-05 22:20 | -44.56464 | -66.09843 | 31300 ft | 485 kts | 30° |
| 2026-05-05 22:20 | -44.53503 | -66.07550 | 31620 ft | 484 kts | 30° |
| 2026-05-05 22:21 | -44.50568 | -66.05278 | 31932 ft | 484 kts | 30° |
| 2026-05-05 22:21 | -44.47610 | -66.02992 | 32235 ft | 484 kts | 30° |
| 2026-05-05 22:21 | -44.44680 | -66.00732 | 32536 ft | 483 kts | 30° |
| 2026-05-05 22:21 | -44.41757 | -65.98480 | 32834 ft | 483 kts | 31° |
| 2026-05-05 22:22 | -44.38838 | -65.96233 | 33126 ft | 482 kts | 31° |
| 2026-05-05 22:22 | -44.35877 | -65.93971 | 33416 ft | 482 kts | 29° |
| 2026-05-05 22:22 | -44.32867 | -65.91979 | 33689 ft | 482 kts | 24° |
| 2026-05-05 22:22 | -44.29739 | -65.90360 | 33948 ft | 483 kts | 19° |
| 2026-05-05 22:23 | -44.26467 | -65.89135 | 34201 ft | 484 kts | 13° |
| 2026-05-05 22:23 | -44.23185 | -65.88352 | 34452 ft | 484 kts | 7° |
| 2026-05-05 22:23 | -44.19853 | -65.87991 | 34697 ft | 483 kts | 1° |
| 2026-05-05 22:23 | -44.16506 | -65.87959 | 34942 ft | 482 kts | 359° |
| 2026-05-05 22:24 | -44.13140 | -65.88000 | 35175 ft | 482 kts | 359° |
| 2026-05-05 22:24 | -44.09823 | -65.88022 | 35360 ft | 483 kts | 359° |
| 2026-05-05 22:24 | -44.06449 | -65.87881 | 35519 ft | 484 kts | 5° |
| 2026-05-05 22:24 | -44.03126 | -65.87318 | 35675 ft | 485 kts | 11° |
| 2026-05-05 22:25 | -43.99829 | -65.86304 | 35848 ft | 484 kts | 17° |
| 2026-05-05 22:25 | -43.96663 | -65.84875 | 36011 ft | 484 kts | 22° |
| 2026-05-05 22:25 | -43.93568 | -65.83009 | 36170 ft | 483 kts | 28° |
| 2026-05-05 22:25 | -43.90638 | -65.80794 | 36319 ft | 482 kts | 33° |
| 2026-05-05 22:26 | -43.87752 | -65.78445 | 36459 ft | 483 kts | 33° |
| 2026-05-05 22:26 | -43.85017 | -65.76205 | 36571 ft | 484 kts | 33° |
| 2026-05-05 22:26 | -43.82121 | -65.73844 | 36690 ft | 484 kts | 33° |
| 2026-05-05 22:26 | -43.79229 | -65.71500 | 36807 ft | 485 kts | 33° |
| 2026-05-05 22:27 | -43.76322 | -65.69157 | 36893 ft | 487 kts | 33° |
| 2026-05-05 22:27 | -43.70447 | -65.64445 | 36902 ft | 487 kts | 33° |
| 2026-05-05 22:28 | -43.64613 | -65.59782 | 36903 ft | 487 kts | 33° |
| 2026-05-05 22:28 | -43.58765 | -65.55119 | 36903 ft | 487 kts | 33° |
| 2026-05-05 22:29 | -43.52859 | -65.50420 | 36903 ft | 487 kts | 32° |
| 2026-05-05 22:29 | -43.46984 | -65.45761 | 36903 ft | 487 kts | 32° |
| 2026-05-05 22:30 | -43.41105 | -65.41107 | 36903 ft | 487 kts | 33° |
| 2026-05-05 22:30 | -43.35228 | -65.36465 | 36903 ft | 487 kts | 32° |
| 2026-05-05 22:31 | -43.29371 | -65.31835 | 36903 ft | 488 kts | 32° |
| 2026-05-05 22:31 | -43.23514 | -65.27219 | 36903 ft | 487 kts | 32° |
| 2026-05-05 22:32 | -43.17633 | -65.22658 | 36903 ft | 488 kts | 31° |
| 2026-05-05 22:32 | -43.11666 | -65.18240 | 36902 ft | 488 kts | 30° |
| 2026-05-05 22:33 | -43.05734 | -65.13882 | 36899 ft | 488 kts | 30° |
| 2026-05-05 22:33 | -42.99746 | -65.09486 | 36892 ft | 487 kts | 31° |
| 2026-05-05 22:34 | -42.93777 | -65.05111 | 36885 ft | 486 kts | 31° |
| 2026-05-05 22:34 | -42.87859 | -65.00785 | 36878 ft | 484 kts | 32° |
| 2026-05-05 22:35 | -42.81958 | -64.96493 | 36878 ft | 482 kts | 32° |
| 2026-05-05 22:35 | -42.76033 | -64.92181 | 36877 ft | 481 kts | 32° |
| 2026-05-05 22:36 | -42.70191 | -64.87932 | 36877 ft | 480 kts | 32° |
| 2026-05-05 22:36 | -42.64313 | -64.83665 | 36877 ft | 479 kts | 32° |
| 2026-05-05 22:37 | -42.58437 | -64.79409 | 36876 ft | 477 kts | 32° |
| 2026-05-05 22:37 | -42.52607 | -64.75196 | 36876 ft | 477 kts | 32° |
| 2026-05-05 22:38 | -42.46773 | -64.70991 | 36876 ft | 477 kts | 32° |
| 2026-05-05 22:38 | -42.40928 | -64.66789 | 36877 ft | 477 kts | 32° |
| 2026-05-05 22:39 | -42.35057 | -64.62613 | 36876 ft | 478 kts | 31° |
| 2026-05-05 22:39 | -42.29190 | -64.58568 | 36877 ft | 478 kts | 31° |
| 2026-05-05 22:40 | -42.23289 | -64.54520 | 36876 ft | 477 kts | 31° |
| 2026-05-05 22:40 | -42.17353 | -64.50453 | 36877 ft | 478 kts | 31° |
| 2026-05-05 22:41 | -42.11476 | -64.46431 | 36877 ft | 478 kts | 31° |
| 2026-05-05 22:41 | -42.05541 | -64.42378 | 36876 ft | 477 kts | 31° |
| 2026-05-05 22:42 | -41.99648 | -64.38361 | 36877 ft | 477 kts | 31° |
| 2026-05-05 22:42 | -41.93723 | -64.34331 | 36876 ft | 477 kts | 31° |
| 2026-05-05 22:43 | -41.87812 | -64.30295 | 36875 ft | 478 kts | 31° |
| 2026-05-05 22:43 | -41.81866 | -64.26274 | 36878 ft | 478 kts | 30° |
| 2026-05-05 22:44 | -41.80567 | -64.25397 | 36879 ft | 478 kts | 30° |